Time;durP1;ratioP1;P1;durP2;ratioP2;P2;SDS_P1;SDS_P2;PMS_P1;PMS_P2;Temp;Humidity;BMP_temperature;BMP_pressure;BME280_temperature;BME280_humidity;BME280_pressure;Samples;Min_cycle;Max_cycle;Signal;HPM_P1;HPM_P2
2021/08/02 00:00:33;;;;;;;20.45;13.40;;;;;;;21.22;78.42;99683.02;1726260;83;21378;-81
2021/08/02 00:04:01;;;;;;;25.40;13.72;;;;;;;21.16;78.45;99693.22;1726536;83;21313;-82
2021/08/02 00:07:14;;;;;;;30.85;14.13;;;;;;;21.11;77.99;99679.27;1726765;83;21298;-82
2021/08/02 00:10:21;;;;;;;27.30;14.00;;;;;;;21.06;77.96;99683.93;1725194;83;21329;-82
2021/08/02 00:13:47;;;;;;;22.00;13.75;;;;;;;20.99;78.39;99670.24;1725123;83;21184;-82
2021/08/02 00:16:54;;;;;;;23.92;13.38;;;;;;;20.95;78.45;99666.30;1726759;83;21836;-82
2021/08/02 00:20:00;;;;;;;22.70;14.18;;;;;;;20.94;78.36;99666.02;1725331;81;21188;-82
2021/08/02 00:23:10;;;;;;;21.40;13.03;;;;;;;20.93;78.24;99667.09;1726610;83;21317;-81
2021/08/02 00:26:16;;;;;;;20.27;13.80;;;;;;;20.91;78.30;99659.58;1727056;83;21374;-82
2021/08/02 00:29:23;;;;;;;20.05;13.32;;;;;;;20.86;78.21;99652.56;1725262;81;21256;-81
2021/08/02 00:32:28;;;;;;;24.85;14.47;;;;;;;20.86;78.31;99654.80;1726914;83;21739;-82
2021/08/02 00:35:37;;;;;;;25.12;13.98;;;;;;;20.87;77.94;99650.91;1726572;83;21164;-82
2021/08/02 00:39:11;;;;;;;26.07;13.80;;;;;;;20.85;77.81;99646.17;1725399;82;21251;-82
2021/08/02 00:43:05;;;;;;;28.32;14.38;;;;;;;20.87;77.74;99647.30;1725508;82;21262;-82
2021/08/02 00:46:10;;;;;;;28.60;13.60;;;;;;;20.84;77.72;99652.84;1726829;83;21715;-82
2021/08/02 00:49:17;;;;;;;27.30;14.28;;;;;;;20.85;77.85;99655.06;1726979;83;21839;-82
2021/08/02 00:52:22;;;;;;;21.60;14.83;;;;;;;20.83;77.83;99660.03;1725312;83;22606;-82
2021/08/02 00:55:29;;;;;;;22.15;13.78;;;;;;;20.76;77.87;99661.62;1725471;83;21309;-82
2021/08/02 00:58:37;;;;;;;24.07;14.38;;;;;;;20.73;77.98;99659.35;1725520;83;21361;-81
2021/08/02 01:01:44;;;;;;;27.07;14.38;;;;;;;20.67;78.19;99665.40;1727217;83;21227;-82
2021/08/02 01:04:52;;;;;;;25.17;14.65;;;;;;;20.62;78.34;99673.67;1726869;83;21282;-81
2021/08/02 01:08:20;;;;;;;21.12;14.98;;;;;;;20.59;78.46;99676.95;1726999;83;21310;-82
2021/08/02 01:11:27;;;;;;;28.47;16.73;;;;;;;20.57;78.21;99675.55;1727161;83;21294;-81
2021/08/02 01:14:33;;;;;;;35.52;16.48;;;;;;;20.54;78.12;99688.00;1726790;83;21306;-82
2021/08/02 01:17:39;;;;;;;21.87;15.03;;;;;;;20.54;77.77;99685.77;1726326;83;21338;-81
2021/08/02 01:20:55;;;;;;;24.92;15.58;;;;;;;20.53;77.58;99693.27;1725916;83;21850;-82
2021/08/02 01:24:01;;;;;;;23.00;15.85;;;;;;;20.52;77.50;99691.59;1726619;83;21199;-82
2021/08/02 01:27:16;;;;;;;23.83;15.13;;;;;;;20.52;77.73;99694.92;1726829;83;21309;-82
2021/08/02 01:30:29;;;;;;;24.23;17.35;;;;;;;20.53;77.70;99696.05;1725350;83;21216;-82
2021/08/02 01:33:40;;;;;;;30.48;16.57;;;;;;;20.56;77.76;99701.10;1726028;83;21613;-82
2021/08/02 01:36:45;;;;;;;;;;;;;;;20.58;77.63;99697.50;1700585;84;21184;-82
2021/08/02 01:40:00;;;;;;;26.65;16.85;;;;;;;20.57;77.63;99697.22;1697517;84;20300;-82
2021/08/02 01:43:08;;;;;;;31.95;18.23;;;;;;;20.58;77.70;99701.67;1697860;84;21356;-82
2021/08/02 01:46:33;;;;;;;29.42;17.73;;;;;;;20.58;77.66;99704.45;1697695;84;21314;-82
2021/08/02 01:49:56;;;;;;;26.97;17.62;;;;;;;20.61;77.37;99702.56;1696526;84;21228;-82
2021/08/02 01:53:27;;;;;;;24.57;16.57;;;;;;;20.62;77.47;99708.41;1681928;84;21187;-82
2021/08/02 01:56:32;;;;;;;;;;;;;;;20.60;77.61;99713.91;1698825;84;21891;-82
2021/08/02 01:59:43;;;;;;;25.32;15.35;;;;;;;20.55;77.95;99713.28;1697653;84;20276;-82
2021/08/02 02:02:53;;;;;;;20.43;14.25;;;;;;;20.50;78.31;99712.37;1697894;84;21256;-82
2021/08/02 02:06:14;;;;;;;21.23;15.05;;;;;;;20.43;78.65;99707.83;1662281;86;21873;-81
2021/08/02 02:09:20;;;;;;;24.47;15.90;;;;;;;20.37;78.71;99707.47;1662164;86;21941;-82
2021/08/02 02:12:27;;;;;;;24.87;15.08;;;;;;;20.36;78.95;99711.87;1662068;86;21224;-82
2021/08/02 02:15:34;;;;;;;36.75;16.70;;;;;;;20.35;79.03;99711.58;1660621;86;21220;-82
2021/08/02 02:18:42;;;;;;;27.35;15.65;;;;;;;20.35;79.39;99708.80;1660950;86;21251;-82
2021/08/02 02:21:48;;;;;;;24.02;15.30;;;;;;;20.34;79.63;99702.41;1661427;86;21891;-82
2021/08/02 02:24:54;;;;;;;23.60;15.35;;;;;;;20.36;79.75;99706.31;1662040;86;21865;-82
2021/08/02 02:28:01;;;;;;;21.42;15.63;;;;;;;20.39;80.05;99709.98;1641373;86;21208;-82
2021/08/02 02:31:05;;;;;;;25.08;15.78;;;;;;;20.42;80.27;99703.92;1661374;86;21248;-81
2021/08/02 02:34:14;;;;;;;22.50;15.13;;;;;;;20.45;80.48;99713.11;1661450;86;21256;-82
2021/08/02 02:37:24;;;;;;;22.48;13.83;;;;;;;20.49;80.62;99708.77;1710517;83;21417;-81
2021/08/02 02:40:27;;;;;;;29.15;14.85;;;;;;;20.58;80.52;99708.62;1747993;82;21188;-82
2021/08/02 02:43:34;;;;;;;27.42;15.00;;;;;;;20.75;80.12;99708.58;1747845;82;21830;-82
2021/08/02 02:46:40;;;;;;;32.78;15.72;;;;;;;20.93;79.07;99704.06;1748016;82;21299;-81
2021/08/02 02:49:45;;;;;;;30.97;15.50;;;;;;;21.16;77.95;99707.67;1747339;82;21295;-82
2021/08/02 02:52:52;;;;;;;22.35;15.18;;;;;;;21.37;77.04;99712.41;1722117;82;21188;-82
2021/08/02 02:55:57;;;;;;;27.35;15.18;;;;;;;21.59;76.19;99710.11;1747892;82;21204;-82
2021/08/02 02:59:03;;;;;;;25.85;15.20;;;;;;;21.80;75.31;99715.34;1748472;82;21172;-82
2021/08/02 03:02:08;;;;;;;17.95;13.50;;;;;;;21.98;74.43;99707.98;1748597;82;21223;-81
2021/08/02 03:05:15;;;;;;;32.33;15.58;;;;;;;22.14;74.26;99714.53;1726262;82;21362;-82
2021/08/02 03:10:49;;;;;;;30.27;15.03;;;;;;;22.38;73.22;99722.78;1857546;76;28056;-84
2021/08/02 03:13:55;;;;;;;33.08;13.93;;;;;;;22.48;73.11;99719.22;1750793;82;21849;-82
2021/08/02 03:17:02;;;;;;;27.85;13.98;;;;;;;22.59;73.03;99717.36;1765723;81;21249;-82
2021/08/02 03:20:08;;;;;;;24.57;12.93;;;;;;;22.71;72.53;99713.23;1749897;82;21314;-82
2021/08/02 03:23:24;;;;;;;24.65;13.28;;;;;;;22.87;72.17;99714.72;1767303;81;21891;-81
2021/08/02 03:26:41;;;;;;;24.12;13.22;;;;;;;23.07;71.63;99714.83;1750994;82;21822;-82
2021/08/02 03:29:49;;;;;;;20.25;13.05;;;;;;;23.31;71.35;99720.77;1765815;81;21335;-82
2021/08/02 03:32:54;;;;;;;23.30;13.25;;;;;;;23.54;70.89;99717.20;1750903;82;21830;-81
2021/08/02 03:35:59;;;;;;;21.52;13.53;;;;;;;23.74;70.63;99713.07;1766021;81;21300;-82
2021/08/02 03:39:05;;;;;;;28.05;14.70;;;;;;;23.93;70.34;99717.55;1749252;82;21406;-82
2021/08/02 03:42:11;;;;;;;25.05;13.58;;;;;;;24.08;70.37;99714.75;1767441;81;21363;-82
2021/08/02 03:45:19;;;;;;;26.90;14.35;;;;;;;24.21;69.44;99710.56;1749612;82;21299;-82
2021/08/02 03:48:26;;;;;;;25.32;14.23;;;;;;;24.33;69.35;99715.31;1767398;81;21830;-82
2021/08/02 03:51:32;;;;;;;18.82;13.65;;;;;;;24.51;69.48;99699.08;1749472;82;21310;-82
2021/08/02 03:54:38;;;;;;;24.57;14.50;;;;;;;24.74;68.82;99718.87;1744781;81;21354;-82
2021/08/02 03:57:43;;;;;;;31.45;14.95;;;;;;;24.98;67.73;99721.02;1750934;82;21303;-82
2021/08/02 04:00:49;;;;;;;26.30;13.80;;;;;;;25.16;66.12;99722.39;1753512;81;21374;-81
2021/08/02 04:03:55;;;;;;;23.98;13.88;;;;;;;25.26;64.73;99727.93;1736806;82;21837;-83
2021/08/02 04:07:01;;;;;;;24.27;14.38;;;;;;;25.32;64.03;99721.77;1748457;82;21838;-81
2021/08/02 04:10:06;;;;;;;24.07;14.35;;;;;;;25.35;64.20;99729.57;1745518;82;21342;-82
2021/08/02 04:13:15;;;;;;;27.95;14.05;;;;;;;25.40;64.29;99735.14;1740639;82;21193;-82
2021/08/02 04:16:19;;;;;;;25.97;13.58;;;;;;;25.48;64.51;99728.38;1740621;82;21311;-82
2021/08/02 04:19:26;;;;;;;24.90;13.62;;;;;;;25.58;64.37;99733.08;1740533;82;21842;-82
2021/08/02 04:22:31;;;;;;;21.20;12.82;;;;;;;25.67;64.40;99731.34;1738675;82;21831;-82
2021/08/02 04:25:36;;;;;;;17.50;13.88;;;;;;;25.78;64.73;99732.70;1739221;82;21374;-82
2021/08/02 04:28:42;;;;;;;26.48;12.60;;;;;;;25.89;65.71;99729.55;1740017;82;21344;-83
2021/08/02 04:31:49;;;;;;;23.22;13.40;;;;;;;26.08;65.65;99734.45;1738685;82;21725;-83
2021/08/02 04:34:53;;;;;;;22.55;13.75;;;;;;;26.22;65.11;99732.08;1739837;82;21237;-83
2021/08/02 04:37:58;;;;;;;20.37;13.43;;;;;;;26.40;65.21;99738.09;1740124;82;21300;-83
2021/08/02 04:41:04;;;;;;;25.02;13.80;;;;;;;26.60;64.95;99737.08;1738533;82;21347;-83
2021/08/02 04:44:10;;;;;;;23.12;13.95;;;;;;;26.80;64.56;99738.83;1738719;82;21799;-82
2021/08/02 04:47:15;;;;;;;20.43;12.93;;;;;;;26.92;63.16;99738.69;1740157;82;21260;-83
2021/08/02 04:50:20;;;;;;;19.15;13.75;;;;;;;27.06;63.44;99735.17;1739710;82;21337;-83
2021/08/02 04:53:28;;;;;;;26.23;14.87;;;;;;;27.19;63.47;99734.45;1739883;82;21303;-83
2021/08/02 04:56:33;;;;;;;28.57;13.60;;;;;;;27.28;61.68;99734.62;1738936;82;21894;-82
2021/08/02 04:59:39;;;;;;;21.87;13.40;;;;;;;27.36;61.00;99726.36;1736823;82;21189;-83
2021/08/02 05:02:45;;;;;;;26.12;13.55;;;;;;;27.48;60.90;99728.17;1730471;82;21296;-83
2021/08/02 05:05:50;;;;;;;26.85;13.90;;;;;;;27.65;60.42;99736.06;1731759;82;21295;-83
2021/08/02 05:08:56;;;;;;;26.37;14.38;;;;;;;27.83;59.92;99732.19;1709589;84;21323;-82
2021/08/02 05:12:03;;;;;;;28.90;13.93;;;;;;;28.01;59.92;99729.93;1727924;82;21181;-83
2021/08/02 05:15:12;;;;;;;24.15;13.75;;;;;;;28.19;58.46;99722.03;1716223;82;21332;-83
2021/08/02 05:18:18;;;;;;;19.10;12.47;;;;;;;28.35;57.87;99717.58;1719422;82;22602;-82
2021/08/02 05:21:23;;;;;;;23.35;14.60;;;;;;;28.53;57.42;99722.30;1714913;82;21682;-82
2021/08/02 05:24:29;;;;;;;27.17;13.50;;;;;;;28.65;57.76;99726.84;1727082;82;21339;-82
2021/08/02 05:27:34;;;;;;;22.20;14.10;;;;;;;28.73;58.22;99727.53;1730504;81;21749;-82
2021/08/02 05:30:40;;;;;;;24.72;12.47;;;;;;;28.80;57.41;99720.69;1727867;82;21858;-83
2021/08/02 05:33:47;;;;;;;28.47;13.83;;;;;;;28.92;57.75;99723.22;1718577;82;21194;-82
2021/08/02 05:36:53;;;;;;;26.37;14.63;;;;;;;29.09;58.33;99725.45;1726272;82;21293;-82
2021/08/02 05:39:58;;;;;;;37.50;14.15;;;;;;;29.29;58.31;99730.64;1729798;81;21339;-82
2021/08/02 05:43:03;;;;;;;30.62;16.15;;;;;;;29.51;55.64;99731.30;1734791;82;21311;-83
2021/08/02 05:46:09;;;;;;;33.80;15.95;;;;;;;29.69;55.36;99730.92;1737388;82;21296;-83
2021/08/02 05:49:15;;;;;;;33.33;16.10;;;;;;;29.89;55.30;99730.18;1723768;83;21301;-82
2021/08/02 05:52:21;;;;;;;34.00;15.43;;;;;;;30.13;54.33;99733.55;1698764;83;21200;-82
2021/08/02 05:55:27;;;;;;;31.90;17.70;;;;;;;30.38;53.61;99728.41;1729857;82;21140;-82
2021/08/02 05:58:32;;;;;;;29.85;17.17;;;;;;;30.50;51.27;99732.89;1717924;83;21550;-82
2021/08/02 06:01:39;;;;;;;30.43;15.53;;;;;;;30.63;51.73;99727.73;1695295;83;21387;-83
2021/08/02 06:04:45;;;;;;;34.23;16.50;;;;;;;30.82;50.81;99731.77;1709581;83;21255;-82
2021/08/02 06:07:52;;;;;;;27.25;14.87;;;;;;;30.99;50.61;99727.58;1712047;83;21280;-82
2021/08/02 06:10:58;;;;;;;17.50;12.50;;;;;;;31.18;48.68;99730.72;1705988;83;21796;-82
2021/08/02 06:14:02;;;;;;;22.00;11.88;;;;;;;31.25;46.75;99728.27;1709755;83;21172;-83
2021/08/02 06:17:09;;;;;;;20.25;11.55;;;;;;;31.28;45.76;99726.20;1716395;83;21183;-82
2021/08/02 06:20:15;;;;;;;23.92;11.25;;;;;;;31.35;45.63;99728.56;1716046;83;21890;-82
2021/08/02 06:23:20;;;;;;;16.35;9.00;;;;;;;31.41;44.44;99731.48;1724121;83;21163;-82
2021/08/02 06:26:24;;;;;;;19.25;10.90;;;;;;;31.45;44.28;99735.31;1726679;83;21777;-82
2021/08/02 06:29:29;;;;;;;18.90;10.58;;;;;;;31.45;43.84;99731.08;1714077;83;21294;-82
2021/08/02 06:32:34;;;;;;;28.10;11.90;;;;;;;31.50;44.63;99728.09;1715788;83;21905;-82
2021/08/02 06:35:43;;;;;;;17.02;10.35;;;;;;;31.58;44.62;99730.11;1717022;83;21317;-82
2021/08/02 06:38:48;;;;;;;23.07;10.35;;;;;;;31.69;43.82;99728.61;1720873;83;21549;-83
2021/08/02 06:41:53;;;;;;;28.55;11.55;;;;;;;31.77;42.60;99724.14;1724399;83;21297;-82
2021/08/02 06:45:00;;;;;;;18.23;10.15;;;;;;;31.81;42.72;99725.97;1744045;82;21522;-81
2021/08/02 06:48:05;;;;;;;18.12;10.68;;;;;;;31.88;42.11;99724.66;1692856;83;21302;-82
2021/08/02 06:51:12;;;;;;;31.73;11.33;;;;;;;32.01;41.65;99732.98;1729096;82;21290;-82
2021/08/02 06:54:17;;;;;;;19.85;12.55;;;;;;;32.12;42.04;99729.22;1711159;83;21358;-82
2021/08/02 06:57:22;;;;;;;16.60;11.93;;;;;;;32.21;42.85;99728.63;1706969;83;21405;-82
2021/08/02 07:00:28;;;;;;;23.55;12.65;;;;;;;32.27;43.72;99730.11;1743244;82;21299;-82
2021/08/02 07:03:34;;;;;;;20.35;11.12;;;;;;;32.28;43.39;99728.14;1715498;83;21857;-82
2021/08/02 07:06:44;;;;;;;22.85;11.60;;;;;;;32.35;43.06;99725.62;1733540;82;21332;-83
2021/08/02 07:09:48;;;;;;;20.37;11.53;;;;;;;32.37;43.32;99728.13;1712650;82;21201;-82
2021/08/02 07:13:05;;;;;;;17.40;9.70;;;;;;;32.35;43.61;99729.03;1687075;83;21327;-83
2021/08/02 07:16:11;;;;;;;33.33;9.68;;;;;;;32.41;43.09;99735.61;1724666;83;21333;-83
2021/08/02 07:19:16;;;;;;;21.10;9.25;;;;;;;32.52;42.92;99733.28;1723875;83;21912;-83
2021/08/02 07:22:22;;;;;;;13.32;8.03;;;;;;;32.63;42.54;99723.25;1711202;83;21296;-83
2021/08/02 07:25:27;;;;;;;17.50;8.20;;;;;;;32.66;42.32;99721.16;1701986;84;21391;-83
2021/08/02 07:28:33;;;;;;;15.93;7.42;;;;;;;32.73;41.86;99712.14;1717218;83;21432;-83
2021/08/02 07:31:38;;;;;;;11.03;7.67;;;;;;;32.80;41.39;99711.87;1701069;84;21802;-81
2021/08/02 07:34:43;;;;;;;15.78;7.83;;;;;;;32.93;41.23;99706.33;1727402;82;21304;-81
2021/08/02 07:37:49;;;;;;;11.80;7.58;;;;;;;33.05;40.46;99708.70;1727522;82;21304;-80
2021/08/02 07:40:54;;;;;;;21.68;8.05;;;;;;;33.08;40.52;99707.20;1729730;82;21807;-80
2021/08/02 07:44:00;;;;;;;13.28;8.20;;;;;;;33.05;40.94;99701.61;1725089;82;21321;-80
2021/08/02 07:47:06;;;;;;;14.93;8.08;;;;;;;33.14;41.20;99701.57;1726655;82;21288;-80
2021/08/02 07:50:15;;;;;;;22.73;8.50;;;;;;;33.20;40.87;99701.61;1729107;82;21852;-80
2021/08/02 07:53:20;;;;;;;12.35;7.83;;;;;;;33.34;40.75;99691.45;1726933;82;21313;-80
2021/08/02 07:56:28;;;;;;;19.87;7.92;;;;;;;33.47;40.36;99695.23;1728819;82;21732;-80
2021/08/02 07:59:36;;;;;;;11.20;6.12;;;;;;;33.59;40.70;99696.71;1724093;82;21310;-80
2021/08/02 08:02:40;;;;;;;11.63;5.37;;;;;;;33.72;40.49;99686.27;1728049;82;21287;-80
2021/08/02 08:05:47;;;;;;;12.98;6.42;;;;;;;33.73;38.79;99696.44;1728175;82;21338;-80
2021/08/02 08:08:53;;;;;;;10.40;6.05;;;;;;;33.76;38.07;99695.75;1727458;82;21303;-80
2021/08/02 08:12:00;;;;;;;16.02;6.22;;;;;;;33.87;37.46;99686.23;1704406;84;21906;-80
2021/08/02 08:15:05;;;;;;;13.93;6.17;;;;;;;33.79;37.42;99680.30;1726953;82;21315;-80
2021/08/02 08:18:11;;;;;;;14.60;5.90;;;;;;;33.64;38.16;99690.83;1726653;82;21212;-80
2021/08/02 08:21:17;;;;;;;20.12;5.67;;;;;;;33.74;38.54;99699.54;1726501;82;21304;-80
2021/08/02 08:24:22;;;;;;;14.25;5.78;;;;;;;33.93;37.67;99700.46;1727790;82;21319;-80
2021/08/02 08:27:28;;;;;;;15.45;5.92;;;;;;;34.03;37.83;99693.80;1709197;82;21440;-80
2021/08/02 08:30:33;;;;;;;11.83;5.10;;;;;;;34.18;37.98;99702.84;1727718;82;21346;-80
2021/08/02 08:33:42;;;;;;;9.70;4.22;;;;;;;34.30;37.20;99705.14;1721515;82;22491;-81
2021/08/02 08:36:48;;;;;;;7.22;3.90;;;;;;;34.40;35.23;99715.22;1719627;82;21348;-80
2021/08/02 08:39:53;;;;;;;9.38;4.65;;;;;;;34.38;34.45;99705.38;1727378;82;21292;-80
2021/08/02 08:42:59;;;;;;;10.68;4.72;;;;;;;34.31;35.58;99701.70;1727031;82;21281;-81
2021/08/02 08:46:06;;;;;;;11.70;4.22;;;;;;;34.32;35.44;99704.19;1727297;83;22230;-80
2021/08/02 08:49:11;;;;;;;9.65;4.03;;;;;;;34.39;35.42;99698.52;1726200;83;21722;-80
2021/08/02 08:52:17;;;;;;;9.43;4.55;;;;;;;34.49;35.71;99696.67;1731142;82;21233;-81
2021/08/02 08:58:05;;;;;;;11.28;4.50;;;;;;;34.60;34.21;99689.38;1855722;76;28052;-80
2021/08/02 09:01:13;;;;;;;12.05;4.33;;;;;;;34.60;34.32;99689.38;1721328;82;21593;-80
2021/08/02 09:04:19;;;;;;;6.00;3.70;;;;;;;34.64;34.22;99683.24;1749566;82;21188;-79
2021/08/02 09:07:24;;;;;;;7.00;3.67;;;;;;;34.68;34.01;99683.38;1705389;84;21329;-79
2021/08/02 09:10:30;;;;;;;13.55;4.47;;;;;;;34.68;33.50;99687.63;1737802;82;21733;-80
2021/08/02 09:13:38;;;;;;;7.45;4.00;;;;;;;34.64;32.81;99684.66;1686893;81;21877;-79
2021/08/02 09:16:44;;;;;;;9.03;4.08;;;;;;;34.59;33.81;99682.05;1737846;82;21874;-79
2021/08/02 09:19:50;;;;;;;11.10;3.83;;;;;;;34.61;33.58;99673.17;1734630;81;21342;-79
2021/08/02 09:22:54;;;;;;;5.70;4.10;;;;;;;34.61;33.85;99664.06;1737830;82;21240;-79
2021/08/02 09:26:02;;;;;;;4.95;3.85;;;;;;;34.56;32.91;99670.80;1733451;82;21736;-80
2021/08/02 09:29:12;;;;;;;10.63;3.98;;;;;;;34.52;33.61;99662.73;1728751;82;21197;-79
2021/08/02 09:32:16;;;;;;;10.45;4.08;;;;;;;34.55;33.25;99656.96;1739064;82;21694;-79
2021/08/02 09:35:54;;;;;;;6.75;4.08;;;;;;;34.58;33.56;99653.40;1740460;82;21898;-79
2021/08/02 09:39:04;;;;;;;9.93;4.28;;;;;;;34.62;32.79;99655.77;1733985;82;21331;-80
2021/08/02 09:42:11;;;;;;;7.55;4.12;;;;;;;34.57;32.75;99656.01;1733197;82;21161;-80
2021/08/02 09:45:19;;;;;;;8.70;4.33;;;;;;;34.50;33.22;99656.59;1733993;82;21217;-79
2021/08/02 09:48:23;;;;;;;11.73;4.65;;;;;;;34.48;33.45;99661.78;1729010;82;21316;-80
2021/08/02 09:51:29;;;;;;;7.87;4.10;;;;;;;34.48;33.09;99651.84;1732184;81;21247;-79
2021/08/02 09:54:37;;;;;;;11.60;4.78;;;;;;;34.45;33.07;99654.55;1737331;82;21328;-80
2021/08/02 09:57:42;;;;;;;11.60;4.60;;;;;;;34.44;32.90;99651.45;1726049;82;21315;-80
2021/08/02 10:00:47;;;;;;;9.28;4.67;;;;;;;34.39;33.19;99643.16;1722989;83;21293;-80
2021/08/02 10:03:54;;;;;;;12.95;4.58;;;;;;;34.35;33.48;99640.22;1722607;83;21818;-79
2021/08/02 10:07:00;;;;;;;12.13;4.55;;;;;;;34.37;34.15;99635.02;1765353;81;21284;-80
2021/08/02 10:10:06;;;;;;;12.75;5.25;;;;;;;34.44;33.50;99631.58;1767771;81;21154;-80
2021/08/02 10:13:13;;;;;;;16.02;4.95;;;;;;;34.42;32.51;99629.11;1768367;81;21708;-80
2021/08/02 10:16:26;;;;;;;5.72;4.50;;;;;;;34.38;32.56;99623.06;1767898;80;21177;-80
2021/08/02 10:19:48;;;;;;;18.45;4.70;;;;;;;34.37;32.68;99625.67;1763117;81;21321;-80
2021/08/02 10:22:53;;;;;;;13.15;4.17;;;;;;;34.32;32.78;99619.63;1728543;82;21303;-80
2021/08/02 10:25:58;;;;;;;7.12;4.10;;;;;;;34.27;32.50;99621.28;1769634;81;21244;-79
2021/08/02 10:29:07;;;;;;;6.67;4.33;;;;;;;34.24;32.67;99627.05;1720450;82;21300;-81
2021/08/02 10:32:12;;;;;;;10.10;4.90;;;;;;;34.22;32.39;99620.91;1767843;81;21620;-81
2021/08/02 10:35:18;;;;;;;7.65;4.30;;;;;;;34.17;32.04;99615.47;1769331;81;21563;-81
2021/08/02 10:38:25;;;;;;;7.08;4.08;;;;;;;34.12;32.36;99613.45;1717114;82;21252;-81
2021/08/02 10:41:36;;;;;;;8.38;4.60;;;;;;;34.12;32.20;99624.20;1740584;82;21855;-81
2021/08/02 10:44:42;;;;;;;7.70;4.30;;;;;;;34.07;32.32;99621.59;1767824;79;21767;-81
2021/08/02 10:47:49;;;;;;;7.80;4.47;;;;;;;34.08;32.82;99619.81;1766283;81;21303;-80
2021/08/02 10:50:55;;;;;;;10.82;4.50;;;;;;;34.08;32.33;99620.41;1727551;82;21350;-81
2021/08/02 10:54:07;;;;;;;7.47;4.45;;;;;;;34.11;32.73;99616.84;1768771;81;21292;-81
2021/08/02 10:57:21;;;;;;;9.93;5.00;;;;;;;34.14;32.77;99609.06;1771204;81;21351;-81
2021/08/02 11:00:28;;;;;;;8.18;4.90;;;;;;;34.17;33.14;99610.38;1783690;79;21811;-81
2021/08/02 11:03:47;;;;;;;7.45;4.40;;;;;;;34.20;33.32;99615.33;1783246;80;21304;-80
2021/08/02 11:06:53;;;;;;;7.10;5.12;;;;;;;34.19;32.58;99613.69;1778743;80;21279;-81
2021/08/02 11:10:00;;;;;;;10.93;6.65;;;;;;;34.21;32.71;99617.02;1783892;80;21177;-81
2021/08/02 11:13:05;;;;;;;11.50;6.95;;;;;;;34.20;32.71;99611.91;1728992;82;21333;-81
2021/08/02 11:16:14;;;;;;;14.25;8.05;;;;;;;34.19;32.95;99604.58;1733927;82;21245;-81
2021/08/02 11:19:38;;;;;;;20.00;9.70;;;;;;;34.20;33.07;99602.56;1744929;82;21239;-81
2021/08/02 11:23:02;;;;;;;19.57;9.65;;;;;;;34.19;32.58;99591.81;1722574;82;21184;-81
2021/08/02 11:26:16;;;;;;;20.70;9.95;;;;;;;34.17;32.97;99594.19;1704918;84;21228;-81
2021/08/02 11:29:33;;;;;;;20.37;12.10;;;;;;;34.16;32.50;99590.25;1699287;84;22442;-81
2021/08/02 11:32:39;;;;;;;18.62;11.28;;;;;;;34.11;32.62;99594.14;1698892;84;21265;-81
2021/08/02 11:35:45;;;;;;;15.25;11.50;;;;;;;34.10;32.63;99581.14;1699211;84;21911;-81
2021/08/02 11:38:51;;;;;;;23.15;10.65;;;;;;;34.08;32.77;99585.77;1698799;84;21346;-81
2021/08/02 11:42:14;;;;;;;16.20;11.08;;;;;;;34.09;33.16;99582.33;1699049;84;21240;-81
2021/08/02 11:45:20;;;;;;;18.10;10.93;;;;;;;34.10;32.74;99574.64;1699421;84;21324;-81
2021/08/02 11:48:25;;;;;;;18.95;13.13;;;;;;;34.12;33.25;99575.14;1673477;84;21304;-81
2021/08/02 11:51:31;;;;;;;22.05;13.50;;;;;;;34.12;33.35;99570.88;1720359;82;21280;-81
2021/08/02 11:54:37;;;;;;;22.40;13.58;;;;;;;34.12;33.14;99567.45;1741321;82;21257;-81
2021/08/02 11:57:43;;;;;;;29.65;13.98;;;;;;;34.09;33.08;99555.38;1742204;82;21371;-81
2021/08/02 12:00:49;;;;;;;26.25;15.53;;;;;;;34.08;33.32;99550.89;1734538;82;21331;-81
2021/08/02 12:03:59;;;;;;;28.52;15.72;;;;;;;34.00;33.22;99552.64;1732916;82;21993;-81
2021/08/02 12:07:07;;;;;;;26.85;15.90;;;;;;;33.96;33.38;99545.19;1711163;82;21177;-81
2021/08/02 12:10:21;;;;;;;30.62;19.20;;;;;;;33.93;33.67;99534.53;1727836;82;21291;-81
2021/08/02 12:13:27;;;;;;;28.62;16.17;;;;;;;33.92;33.21;99534.27;1744518;82;21332;-81
2021/08/02 12:16:38;;;;;;;30.40;16.57;;;;;;;33.91;33.41;99532.02;1718138;83;21302;-81
2021/08/02 12:19:57;;;;;;;31.70;19.42;;;;;;;33.88;33.29;99518.56;1729990;82;21371;-81
2021/08/02 12:23:01;;;;;;;33.23;19.60;;;;;;;33.81;33.71;99514.87;1726137;82;21219;-81
2021/08/02 12:26:07;;;;;;;27.95;16.85;;;;;;;33.83;34.54;99508.86;1722314;82;21296;-81
2021/08/02 12:29:12;;;;;;;21.23;13.72;;;;;;;33.86;34.30;99503.88;1733095;82;21372;-81
2021/08/02 12:32:18;;;;;;;34.95;17.67;;;;;;;33.86;33.98;99497.39;1734352;82;21311;-81
2021/08/02 12:35:25;;;;;;;34.05;16.32;;;;;;;33.79;34.24;99492.30;1730492;82;21396;-80
2021/08/02 12:38:30;;;;;;;28.92;15.63;;;;;;;33.69;33.10;99476.58;1736541;82;21319;-81
2021/08/02 12:41:37;;;;;;;31.95;15.95;;;;;;;33.59;33.80;99476.99;1721335;83;21288;-81
2021/08/02 12:44:38;;;;;;;27.55;15.93;;;;;;;33.60;33.65;99463.67;1705749;83;21305;-81
2021/08/02 12:47:46;;;;;;;28.75;15.48;;;;;;;33.60;34.70;99463.08;1727012;83;21300;-81
2021/08/02 12:50:52;;;;;;;29.40;14.23;;;;;;;33.54;34.98;99454.54;1721433;83;21393;-81
2021/08/02 12:53:58;;;;;;;30.48;15.65;;;;;;;33.48;35.63;99446.03;1706424;82;21150;-81
2021/08/02 12:57:04;;;;;;;25.10;13.98;;;;;;;33.40;35.98;99442.66;1720617;83;21295;-81
2021/08/02 13:00:11;;;;;;;29.37;12.78;;;;;;;33.41;36.25;99450.01;1726565;81;21248;-81
2021/08/02 13:03:19;;;;;;;23.52;12.10;;;;;;;33.40;35.99;99442.06;1728469;83;21332;-81
2021/08/02 13:06:25;;;;;;;24.00;12.40;;;;;;;33.40;36.55;99446.91;1718104;83;21905;-81
2021/08/02 13:09:31;;;;;;;22.07;11.20;;;;;;;33.37;36.08;99447.04;1719166;83;21888;-81
2021/08/02 13:12:36;;;;;;;20.15;10.85;;;;;;;33.35;35.87;99438.63;1713744;83;21814;-81
2021/08/02 13:15:42;;;;;;;27.90;12.33;;;;;;;33.31;35.80;99439.91;1750679;82;21181;-81
2021/08/02 13:18:53;;;;;;;17.50;8.95;;;;;;;33.28;36.15;99438.63;1750567;82;21814;-81
2021/08/02 13:21:57;;;;;;;15.78;8.43;;;;;;;33.20;35.82;99440.95;1749444;82;21322;-80
2021/08/02 13:28:30;;;;;;;19.17;7.12;;;;;;;33.05;35.46;99441.01;1749377;82;21870;-81
2021/08/02 13:31:36;;;;;;;9.53;6.83;;;;;;;33.01;35.82;99440.05;1749360;82;21168;-81
2021/08/02 13:34:47;;;;;;;12.10;6.50;;;;;;;32.98;35.86;99436.51;1750814;82;21307;-81
2021/08/02 13:37:53;;;;;;;20.57;6.58;;;;;;;33.00;35.66;99441.81;1750717;82;21290;-81
2021/08/02 13:40:57;;;;;;;13.30;6.72;;;;;;;33.03;36.26;99451.87;1750063;82;21331;-81
2021/08/02 13:44:02;;;;;;;9.15;5.72;;;;;;;33.02;35.65;99446.53;1750836;82;21260;-81
2021/08/02 13:47:09;;;;;;;16.35;7.12;;;;;;;33.03;35.59;99445.34;1749401;82;21566;-81
2021/08/02 13:50:16;;;;;;;14.83;6.53;;;;;;;32.99;36.13;99443.82;1750690;82;21303;-81
2021/08/02 13:53:21;;;;;;;14.83;6.15;;;;;;;32.99;36.00;99447.25;1750752;82;21319;-81
2021/08/02 13:56:27;;;;;;;9.25;6.37;;;;;;;32.99;36.56;99442.41;1750676;82;21295;-81
2021/08/02 13:59:36;;;;;;;12.82;6.03;;;;;;;33.00;36.52;99451.14;1750962;82;21308;-81
2021/08/02 14:02:40;;;;;;;15.55;6.22;;;;;;;32.96;36.06;99450.76;1744506;81;21335;-81
2021/08/02 14:05:46;;;;;;;20.55;6.25;;;;;;;32.92;36.03;99444.13;1740829;82;21308;-81
2021/08/02 14:08:53;;;;;;;11.15;5.75;;;;;;;32.89;36.03;99439.11;1741666;82;21328;-81
2021/08/02 14:12:00;;;;;;;17.50;5.70;;;;;;;32.88;35.90;99446.78;1739391;82;21193;-81
2021/08/02 14:15:06;;;;;;;13.28;6.22;;;;;;;32.89;36.83;99454.13;1740858;82;21170;-81
2021/08/02 14:18:13;;;;;;;10.63;5.85;;;;;;;32.89;35.95;99451.86;1739283;82;21193;-81
2021/08/02 14:21:19;;;;;;;9.53;6.17;;;;;;;32.88;36.36;99448.80;1740050;82;21335;-81
2021/08/02 14:24:26;;;;;;;18.62;5.40;;;;;;;32.89;37.21;99449.88;1740618;82;21189;-81
2021/08/02 14:27:31;;;;;;;13.48;6.33;;;;;;;32.92;37.65;99446.96;1740285;82;21296;-81
2021/08/02 14:30:37;;;;;;;12.25;6.12;;;;;;;32.90;36.78;99444.48;1740886;82;21201;-81
2021/08/02 14:33:44;;;;;;;9.18;5.10;;;;;;;32.87;36.94;99442.89;1741118;81;21836;-81
2021/08/02 14:36:51;;;;;;;7.15;5.37;;;;;;;32.83;36.65;99450.66;1740314;82;21669;-81